Flight Track Log - Related Links

Times and Time Zones

All times are in EDT time to prevent confusion due to time zone crossing. See the JBU51 flight status page for this flight to view local times or setup timezone preferences in your user account.

Time Position Orientation Groundspeed Altitude Reporting Facility
EDT Latitude Longitude Course Direction KTS MPH feet Rate Location/Type
Sat 06:15:53 AM 42.3500 -71.0167 200° South 164 189 800  Level KA90
Sat 06:16:41 AM 42.3333 -71.0667 246° West 213 245 2,100 1,692 Climbing KA90
Sat 06:17:11 AM 42.3086 -71.0958 221° Southwest 242 278 3,000 2,703 Climbing Boston Center
Sat 06:18:00 AM 42.3152 -70.6961 164° South  Level FlightAware
Sat 06:18:12 AM 42.2403 -71.1067 187° South 274 315 6,200  Level Boston Center
Sat 06:19:00 AM 42.2029 -70.6348 160° South  Level FlightAware
Sat 06:19:12 AM 42.1669 -71.0517 151° Southeast 298 343 9,400  Level Boston Center
Sat 06:20:00 AM 42.0886 -70.6224 200° South  Level FlightAware
Sat 06:20:13 AM 42.0886 -70.9831 147° Southeast 307 353 12,000  Level Boston Center
Sat 06:21:00 AM 41.9742 -70.6796 200° South  Level FlightAware
Sat 06:21:13 AM 42.0078 -70.9061 145° Southeast 346 398 14,500  Level Boston Center
Sat 06:22:15 AM 41.9292 -70.8328 145° Southeast 364 419 16,800 2,177 Climbing Boston Center
Sat 06:23:17 AM 41.8372 -70.7667 152° Southeast 378 435 19,000 2,300 Climbing Boston Center
Sat 06:24:15 AM 41.7492 -70.8117 201° Southwest 348 400 21,400 1,916 Climbing Boston Center
Sat 06:25:16 AM 41.6636 -70.8778 210° Southwest 353 406 22,800 1,512 Climbing Boston Center
Sat 06:26:18 AM 41.5739 -70.9456 209° Southwest 366 421 24,500 2,244 Climbing Boston Center
Sat 06:27:19 AM 41.4989 -71.0367 222° Southwest 366 421 27,400 1,854 Climbing Boston Center
Sat 06:28:21 AM 41.4353 -71.1339 229° Southwest 350 403 28,300 700 Climbing Boston Center
Sat 06:29:19 AM 41.3467 -71.2525 225° Southwest 385 443 28,800 500 Climbing Boston Center
Sat 06:30:21 AM 41.2658 -71.3628 226° Southwest 413 475 29,300 829 Climbing Boston Center
Sat 06:31:22 AM 41.1778 -71.4831 226° Southwest 434 499 30,500 1,279 Climbing Boston Center
Sat 06:32:23 AM 41.0969 -71.5922 226° Southwest 429 494 31,900 1,230 Climbing Boston Center
Sat 06:33:24 AM 41.0150 -71.7053 226° Southwest 428 493 33,000 1,041 Climbing Boston Center
Sat 06:34:24 AM 40.9300 -71.8169 225° Southwest 420 483 34,000 500 Climbing Boston Center
Sat 06:35:24 AM 40.8503 -71.9261 226° Southwest 417 480 34,000  Level Boston Center
Sat 06:36:24 AM 40.7747 -72.0283 226° Southwest 417 480 34,000  Level Boston Center
Sat 06:37:26 AM 40.6839 -72.1486 225° Southwest 416 479 34,000  Level Boston Center
Sat 06:38:26 AM 40.6033 -72.2550 225° Southwest 415 478 34,000  Level Boston Center
Sat 06:39:29 AM 40.5233 -72.3631 226° Southwest 415 478 34,000 -49 Level Boston Center
Sat 06:40:28 AM 40.4422 -72.4694 225° Southwest 414 476 33,900  Descending Boston Center
Sat 06:41:29 AM 40.3619 -72.5761 225° Southwest 413 475 34,000 50 Climbing Boston Center
Sat 06:42:29 AM 40.2806 -72.6822 225° Southwest 413 475 34,000  Level Boston Center
Sat 06:43:30 AM 40.2019 -72.7856 225° Southwest 413 475 34,000  Level Boston Center
Sat 06:44:33 AM 40.1208 -72.8917 225° Southwest 413 475 34,000  Level Boston Center
Sat 06:45:34 AM 40.0392 -72.9986 225° Southwest 413 475 34,000  Level Boston Center
Sat 06:46:35 AM 39.9575 -73.1044 225° Southwest 413 475 34,000  Level Boston Center
Sat 06:47:36 AM 39.8753 -73.2083 224° Southwest 413 475 34,000  Level Boston Center
Sat 06:49:11 AM 39.7369 -73.3869 225° Southwest 419 482 34,000 -39 Level Washington Center
Sat 06:50:11 AM 39.6489 -73.4786 219° Southwest 419 482 33,900 -51 Descending Washington Center
Sat 06:51:09 AM 39.5547 -73.5728 218° Southwest 426 490 33,900 50 Level Washington Center
Sat 06:52:10 AM 39.4647 -73.6694 220° Southwest 426 490 34,000 49 Climbing Washington Center
Sat 06:53:11 AM 39.3703 -73.7606 217° Southwest 433 498 34,000  Level Washington Center
Sat 06:54:12 AM 39.2778 -73.8569 219° Southwest 433 498 34,000  Level Washington Center
Sat 06:55:09 AM 39.1856 -73.9528 219° Southwest 428 493 34,000  Level Washington Center
Sat 06:56:11 AM 39.0886 -74.0486 218° Southwest 435 501 34,000  Level Washington Center
Sat 06:57:11 AM 38.9961 -74.1439 219° Southwest 435 501 34,000 -51 Level Washington Center
Sat 06:58:09 AM 38.9033 -74.2339 217° Southwest 435 501 33,900 -51 Descending Washington Center
Sat 06:59:09 AM 38.8106 -74.3289 219° Southwest 435 501 33,900 50 Level Washington Center
Sat 07:00:10 AM 38.7156 -74.4211 217° Southwest 435 501 34,000 49 Climbing Washington Center
Sat 07:01:11 AM 38.6206 -74.5128 217° Southwest 435 501 34,000  Level Washington Center
Sat 07:02:12 AM 38.5256 -74.6125 219° Southwest 435 501 34,000  Level Washington Center
Sat 07:03:12 AM 38.4303 -74.7064 218° Southwest 440 506 34,000 -51 Level Washington Center
Sat 07:04:09 AM 38.3372 -74.8003 218° Southwest 440 506 33,900 -51 Descending Washington Center
Sat 07:05:10 AM 38.2439 -74.8911 217° Southwest 440 506 33,900 50 Level Washington Center
Sat 07:06:10 AM 38.1506 -74.9844 218° Southwest 440 506 34,000 50 Climbing Washington Center
Sat 07:07:10 AM 38.0531 -75.0750 216° Southwest 440 506 34,000  Level Washington Center
Sat 07:08:11 AM 37.9597 -75.1703 219° Southwest 435 501 34,000  Level Washington Center
Sat 07:09:11 AM 37.8639 -75.2603 217° Southwest 440 506 34,000  Level Washington Center
Sat 07:10:10 AM 37.7661 -75.3581 218° Southwest 440 506 34,000  Level Washington Center
Sat 07:11:11 AM 37.6683 -75.4475 216° Southwest 440 506 34,000  Level Washington Center
Sat 07:12:12 AM 37.5744 -75.5394 218° Southwest 440 506 34,000  Level Washington Center
Sat 07:13:10 AM 37.4764 -75.6311 217° Southwest 440 506 34,000  Level Washington Center
Sat 07:14:10 AM 37.3783 -75.7225 217° Southwest 440 506 34,000  Level Washington Center
Sat 07:15:10 AM 37.2822 -75.8164 218° Southwest 440 506 34,000  Level Washington Center
Sat 07:16:10 AM 37.1842 -75.9072 216° Southwest 445 512 34,000 -50 Level Washington Center
Sat 07:17:11 AM 37.0878 -75.9981 217° Southwest 445 512 33,900  Descending Washington Center
Sat 07:18:09 AM 36.9831 -76.1017 218° Southwest 445 512 34,000 51 Climbing Washington Center
Sat 07:19:09 AM 36.8847 -76.1789 212° Southwest 451 519 34,000  Level Washington Center
Sat 07:20:12 AM 36.7864 -76.2714 217° Southwest 451 519 34,000 -48 Level Washington Center
Sat 07:21:13 AM 36.6814 -76.3742 218° Southwest 446 513 33,900  Descending Washington Center
Sat 07:22:10 AM 36.5847 -76.4611 216° Southwest 440 506 34,000 51 Climbing Washington Center
Sat 07:23:11 AM 36.4861 -76.5531 217° Southwest 440 506 34,000 -50 Level Washington Center
Sat 07:24:11 AM 36.3872 -76.6422 216° Southwest 445 512 33,900  Descending Washington Center
Sat 07:25:11 AM 36.2842 -76.7333 215° Southwest 445 512 34,000 50 Climbing Washington Center
Sat 07:26:12 AM 36.1872 -76.8247 217° Southwest 445 512 34,000  Level Washington Center
Sat 07:27:12 AM 36.0883 -76.9156 217° Southwest 445 512 34,000 -51 Level Washington Center
Sat 07:28:09 AM 35.9869 -77.0039 215° Southwest 445 512 33,900  Descending Washington Center
Sat 07:29:11 AM 35.8858 -77.0944 216° Southwest 445 512 34,000 49 Climbing Washington Center
Sat 07:30:11 AM 35.8033 -77.1772 219° Southwest 438 504 34,000  Level Washington Center
Sat 07:31:12 AM 35.7000 -77.2647 215° Southwest 444 511 34,000  Level Washington Center
Sat 07:32:10 AM 35.5986 -77.3572 217° Southwest 449 517 34,000  Level Washington Center
Sat 07:33:11 AM 35.4911 -77.4264 208° Southwest 454 522 34,000  Level Washington Center
Sat 07:34:12 AM 35.3753 -77.4925 205° Southwest 454 522 34,000  Level Washington Center
Sat 07:35:10 AM 35.2614 -77.5608 206° Southwest 454 522 34,000  Level Washington Center
Sat 07:36:10 AM 35.1497 -77.6267 206° Southwest 454 522 34,000  Level Washington Center
Sat 07:37:09 AM 35.0400 -77.6950 207° Southwest 449 517 34,000  Level Washington Center
Sat 07:38:11 AM 34.9325 -77.7683 209° Southwest 454 522 34,000  Level Washington Center
Sat 07:39:11 AM 34.8225 -77.8411 209° Southwest 454 522 34,000  Level Washington Center
Sat 07:40:12 AM 34.7328 -77.9500 225° Southwest 454 522 34,000 -50 Level Washington Center
Sat 07:41:10 AM 34.6431 -78.0533 223° Southwest 448 516 33,900  Descending Washington Center
Sat 07:43:33 AM 34.4289 -78.3036 224° Southwest 443 510 34,000 30 Climbing Jacksonville Center
Sat 07:44:33 AM 34.3408 -78.4089 225° Southwest 448 516 34,000  Level Jacksonville Center
Sat 07:45:33 AM 34.2467 -78.5142 223° Southwest 453 521 34,000  Level Jacksonville Center
Sat 07:46:33 AM 34.1517 -78.6069 219° Southwest 453 521 34,000  Level Jacksonville Center
Sat 07:47:33 AM 34.0369 -78.6675 204° Southwest 447 514 34,000  Level Jacksonville Center
Sat 07:48:33 AM 33.9203 -78.7333 205° Southwest 452 520 34,000  Level Jacksonville Center
Sat 07:49:33 AM 33.8033 -78.7939 203° Southwest 458 527 34,000  Level Jacksonville Center
Sat 07:50:33 AM 33.6883 -78.8542 204° Southwest 458 527 34,000  Level Jacksonville Center
Sat 07:51:33 AM 33.5733 -78.9142 203° Southwest 458 527 34,000  Level Jacksonville Center
Sat 07:52:33 AM 33.4586 -78.9789 205° Southwest 458 527 34,000  Level Jacksonville Center
Sat 07:53:33 AM 33.3475 -79.0361 203° Southwest 452 520 34,000 -50 Level Jacksonville Center
Sat 07:54:33 AM 33.2325 -79.0981 204° Southwest 452 520 33,900  Descending Jacksonville Center
Sat 07:55:33 AM 33.1175 -79.1600 204° Southwest 457 526 34,000 50 Climbing Jacksonville Center
Sat 07:56:33 AM 33.0025 -79.2219 204° Southwest 457 526 34,000  Level Jacksonville Center
Sat 07:57:33 AM 32.8792 -79.2864 204° Southwest 457 526 34,000  Level Jacksonville Center
Sat 07:58:33 AM 32.7639 -79.3478 204° Southwest 457 526 34,000  Level Jacksonville Center
Sat 07:59:33 AM 32.6508 -79.4089 204° Southwest 457 526 34,000  Level Jacksonville Center
Sat 08:00:33 AM 32.5358 -79.4700 204° Southwest 457 526 34,000  Level Jacksonville Center
Sat 08:01:33 AM 32.4225 -79.5308 204° Southwest 457 526 34,000  Level Jacksonville Center
Sat 08:02:33 AM 32.3072 -79.5892 203° Southwest 457 526 34,000  Level Jacksonville Center
Sat 08:03:33 AM 32.1919 -79.6522 205° Southwest 457 526 34,000  Level Jacksonville Center
Sat 08:04:33 AM 32.0786 -79.7100 203° Southwest 457 526 34,000  Level Jacksonville Center
Sat 08:05:33 AM 31.9611 -79.7706 204° Southwest 457 526 34,000  Level Jacksonville Center
Sat 08:06:33 AM 31.8414 -79.8333 204° Southwest 462 532 34,000  Level Jacksonville Center
Sat 08:07:34 AM 31.7219 -79.8933 203° Southwest 467 537 34,000  Level Jacksonville Center
Sat 08:08:33 AM 31.6044 -79.9581 205° Southwest 467 537 34,000  Level Jacksonville Center
Sat 08:09:33 AM 31.4847 -80.0203 204° Southwest 472 543 34,000  Level Jacksonville Center
Sat 08:10:33 AM 31.3672 -80.0825 204° Southwest 472 543 34,000  Level Jacksonville Center
Sat 08:11:33 AM 31.2431 -80.1394 201° Southwest 477 549 34,000  Level Jacksonville Center
Sat 08:12:33 AM 31.1275 -80.2036 205° Southwest 477 549 34,000  Level Jacksonville Center
Sat 08:13:33 AM 31.0033 -80.2606 201° Southwest 466 536 34,000  Level Jacksonville Center
Sat 08:14:33 AM 30.8878 -80.3242 205° Southwest 471 542 34,000  Level Jacksonville Center
Sat 08:15:33 AM 30.7681 -80.3856 204° Southwest 476 548 34,000  Level Jacksonville Center
Sat 08:16:33 AM 30.6481 -80.4442 203° Southwest 476 548 34,000  Level Jacksonville Center
Sat 08:17:33 AM 30.5261 -80.5053 203° Southwest 476 548 34,000  Level Jacksonville Center
Sat 08:18:33 AM 30.4039 -80.5683 204° Southwest 476 548 34,000  Level Jacksonville Center
Sat 08:19:33 AM 30.2819 -80.6242 202° Southwest 476 548 34,000 -300 Level Jacksonville Center
Sat 08:20:33 AM 30.1553 -80.6706 198° South 470 541 33,400 -800 Descending Jacksonville Center
Sat 08:21:33 AM 30.0308 -80.7167 198° South 470 541 32,400 -1,600 Descending Jacksonville Center
Sat 08:22:33 AM 29.9022 -80.7650 198° South 470 541 30,200 -2,450 Descending Jacksonville Center
Sat 08:23:33 AM 29.7778 -80.8108 198° South 476 548 27,500 -2,700 Descending Jacksonville Center
Sat 08:24:33 AM 29.6553 -80.8589 199° South 476 548 24,800 -2,750 Descending Jacksonville Center
Sat 08:25:33 AM 29.5328 -80.9042 198° South 476 548 22,000 -2,750 Descending Jacksonville Center
Sat 08:26:33 AM 29.4167 -80.9425 196° South 458 527 19,300 -2,800 Descending Jacksonville Center
Sat 08:27:33 AM 29.3044 -80.9828 197° South 446 513 16,400 -2,750 Descending Jacksonville Center
Sat 08:28:33 AM 29.1925 -81.0253 198° South 432 497 13,800 -1,950 Descending Jacksonville Center
Sat 08:29:33 AM 29.0906 -81.0558 195° South 410 472 12,500 -950 Descending Jacksonville Center
Sat 08:30:33 AM 29.0075 -81.0906 200° South 363 418 11,900 -1,250 Descending Jacksonville Center
Sat 08:31:33 AM 28.9239 -81.0825 175° South 310 357 10,000 -2,098 Descending Jacksonville Center
Sat 08:32:36 AM 28.8333 -81.0833 180° South 289 333 7,600 -2,085 Descending Orlando TRACON
Sat 08:33:31 AM 28.7833 -81.1333 221° Southwest 293 337 5,900 -872 Descending Orlando TRACON
Sat 08:34:33 AM 28.7314 -81.2044 230° Southwest 276 318 5,900 -393 Level Jacksonville Center
Sat 08:35:33 AM 28.6906 -81.2739 236° Southwest 274 315 5,100 -1,050 Descending Jacksonville Center
Sat 08:36:33 AM 28.6475 -81.3314 230° Southwest 269 310 3,800 -1,261 Descending Jacksonville Center
Sat 08:37:32 AM 28.5833 -81.3333 182° South 225 259 2,600 -1,008 Descending Orlando TRACON
Sat 08:38:38 AM 28.5333 -81.3333 180° South 172 198 1,700 -850 Descending Orlando TRACON
Sat 08:39:32 AM 28.4833 -81.3333 180° South 146 168 900 -889 Descending Orlando TRACON
Sat 08:41:00 AM 28.4294 -81.3090 180° South  Level Estimated
Sat 08:48:00 AM 28.4294 -81.3090 336° Northwest  Level Estimated

Login

Don't have an account? Register now (free) for customized features, flight alerts, and more!